createdAt,value
2023-01-17T07:05:20.699Z,116.00
2023-01-17T07:06:22.721Z,124.00
2023-01-17T07:07:24.774Z,144.00
2023-01-17T07:08:26.779Z,152.00
2023-01-17T07:09:28.786Z,180.00
2023-01-17T07:10:30.788Z,200.00
2023-01-17T07:11:32.792Z,220.00
2023-01-17T07:12:34.817Z,228.00
2023-01-17T07:13:36.823Z,244.00
2023-01-17T07:14:38.822Z,260.00
2023-01-17T07:15:40.862Z,284.00
2023-01-17T07:16:42.842Z,316.00
2023-01-17T07:17:44.856Z,336.00
2023-01-17T07:18:46.890Z,352.00
2023-01-17T07:19:48.910Z,372.00
2023-01-17T07:20:50.936Z,404.00
2023-01-17T07:21:52.971Z,432.00
2023-01-17T07:22:54.987Z,452.00
2023-01-17T07:23:56.998Z,472.00
2023-01-17T07:24:59.016Z,512.00
2023-01-17T07:26:01.015Z,560.00
2023-01-17T07:27:03.049Z,624.00
2023-01-17T07:28:05.072Z,704.00
2023-01-17T07:29:07.071Z,804.00
2023-01-17T07:30:09.108Z,888.00
2023-01-17T07:31:11.236Z,940.00
2023-01-17T07:32:13.278Z,996.00
2023-01-17T07:33:15.291Z,1032.00
2023-01-17T07:34:17.311Z,1060.00
2023-01-17T07:35:19.319Z,1084.00
2023-01-17T07:36:21.314Z,1108.00
2023-01-17T07:37:23.327Z,1156.00
2023-01-17T07:38:25.328Z,1212.00
2023-01-17T07:39:27.331Z,1232.00
2023-01-17T07:40:29.402Z,1236.00
2023-01-17T07:41:31.414Z,1244.00
2023-01-17T07:42:33.435Z,1288.00
2023-01-17T07:43:35.483Z,1380.00
2023-01-17T07:44:38.959Z,1444.00
2023-01-17T07:45:39.195Z,1412.00
2023-01-17T07:46:41.235Z,1464.00
2023-01-17T07:47:43.300Z,1484.00
2023-01-17T07:48:45.319Z,1432.00
2023-01-17T07:49:47.336Z,1360.00
2023-01-17T07:50:49.356Z,1440.00
2023-01-17T07:51:51.376Z,1584.00
2023-01-17T07:52:53.403Z,1552.00
2023-01-17T07:53:55.440Z,1592.00
2023-01-17T07:54:57.456Z,1604.00
2023-01-17T07:55:59.484Z,1624.00
2023-01-17T07:57:01.500Z,1648.00
2023-01-17T07:58:03.537Z,1692.00
2023-01-17T07:59:05.557Z,1772.00
2023-01-17T08:00:07.594Z,1904.00
2023-01-17T08:01:09.714Z,2048.00
2023-01-17T08:02:11.733Z,2096.00
2023-01-17T08:03:13.730Z,2084.00
2023-01-17T08:04:15.811Z,2272.00
2023-01-17T08:05:17.818Z,2496.00
2023-01-17T08:06:19.860Z,2544.00
2023-01-17T08:07:21.881Z,2604.00
2023-01-17T08:08:23.873Z,2616.00
2023-01-17T08:09:25.870Z,2744.00
2023-01-17T08:10:27.876Z,2692.00
2023-01-17T08:11:29.906Z,2548.00
2023-01-17T08:12:31.934Z,2356.00
2023-01-17T08:13:33.938Z,2212.00
2023-01-17T08:14:35.965Z,1700.00
2023-01-17T08:15:37.986Z,2004.00
2023-01-17T08:16:40.083Z,1632.00
2023-01-17T08:17:42.109Z,1564.00
2023-01-17T08:18:44.119Z,1600.00
2023-01-17T08:19:46.147Z,1720.00
2023-01-17T08:20:48.157Z,1592.00
2023-01-17T08:21:50.155Z,1736.00
2023-01-17T08:22:52.155Z,1676.00
2023-01-17T08:23:54.160Z,1644.00
2023-01-17T08:24:56.226Z,2192.00
2023-01-17T08:25:58.251Z,2344.00
2023-01-17T08:27:00.272Z,2636.00
2023-01-17T08:28:02.296Z,2932.00
2023-01-17T08:29:04.335Z,3336.00
2023-01-17T08:30:06.330Z,3656.00
2023-01-17T08:31:08.358Z,4020.00
2023-01-17T08:32:10.378Z,3688.00
2023-01-17T08:33:12.432Z,3716.00
2023-01-17T08:34:14.449Z,4100.00
2023-01-17T08:35:16.464Z,4196.00
2023-01-17T08:36:18.484Z,4120.00
2023-01-17T08:37:20.515Z,4748.00
2023-01-17T08:38:22.523Z,4440.00
2023-01-17T08:39:24.547Z,3932.00
2023-01-17T08:40:26.559Z,3724.00
2023-01-17T08:41:28.575Z,3716.00
2023-01-17T08:42:30.579Z,3444.00
2023-01-17T08:43:32.597Z,3176.00
2023-01-17T08:44:34.583Z,2800.00
2023-01-17T08:45:36.656Z,2372.00
2023-01-17T08:46:38.668Z,1948.00
2023-01-17T08:47:40.695Z,2012.00
2023-01-17T08:48:42.716Z,2336.00
2023-01-17T08:49:44.788Z,2808.00
2023-01-17T08:50:46.798Z,3508.00
2023-01-17T08:51:49.614Z,3168.00
2023-01-17T08:52:50.531Z,2860.00
2023-01-17T08:53:52.516Z,2572.00
2023-01-17T08:54:54.537Z,2768.00
2023-01-17T08:55:56.552Z,2752.00
2023-01-17T08:56:58.620Z,2528.00
2023-01-17T08:58:00.671Z,2148.00
2023-01-17T08:59:02.712Z,1880.00
2023-01-17T09:00:04.752Z,1864.00
2023-01-17T09:01:06.937Z,1908.00
2023-01-17T09:02:08.051Z,1928.00
2023-01-17T09:03:08.993Z,2004.00
2023-01-17T09:04:11.049Z,2240.00
2023-01-17T09:05:13.053Z,2232.00
2023-01-17T09:06:15.055Z,2480.00
2023-01-17T09:07:17.078Z,2324.00
2023-01-17T09:08:19.100Z,2288.00
2023-01-17T09:09:21.135Z,2476.00
2023-01-17T09:10:23.136Z,2788.00
2023-01-17T09:11:25.170Z,3532.00
2023-01-17T09:12:27.174Z,4076.00
2023-01-17T09:13:29.196Z,4384.00
2023-01-17T09:14:31.277Z,5812.00
2023-01-17T09:15:33.303Z,5548.00
2023-01-17T09:16:35.437Z,5488.00
2023-01-17T09:17:37.433Z,6600.00
2023-01-17T09:18:39.468Z,6340.00
2023-01-17T09:19:50.884Z,4872.00
2023-01-17T09:20:42.978Z,4156.00
2023-01-17T09:21:45.020Z,4068.00
2023-01-17T09:22:47.070Z,3992.00
2023-01-17T09:23:49.107Z,4000.00
2023-01-17T09:24:51.106Z,4132.00
2023-01-17T09:25:53.127Z,4068.00
2023-01-17T09:26:55.163Z,3920.00
2023-01-17T09:27:57.168Z,3840.00
2023-01-17T09:28:59.172Z,3972.00
2023-01-17T09:30:01.195Z,4200.00
2023-01-17T09:31:03.252Z,5096.00
2023-01-17T09:32:05.254Z,5436.00
2023-01-17T09:33:07.256Z,6268.00
2023-01-17T09:34:09.281Z,8936.00
2023-01-17T09:35:11.284Z,9412.00
2023-01-17T09:36:13.296Z,8424.00
2023-01-17T09:37:15.312Z,7616.00
2023-01-17T09:38:17.335Z,6196.00
2023-01-17T09:39:19.366Z,6580.00
2023-01-17T09:40:21.395Z,6536.00
2023-01-17T09:41:23.404Z,6868.00
2023-01-17T09:42:25.409Z,7224.00
2023-01-17T09:43:27.430Z,8340.00
2023-01-17T09:44:29.466Z,8748.00
2023-01-17T09:45:31.464Z,9508.00
2023-01-17T09:46:33.462Z,8472.00
2023-01-17T09:47:35.574Z,8528.00
2023-01-17T09:48:37.559Z,9304.00
2023-01-17T09:49:39.601Z,8092.00
2023-01-17T09:50:41.611Z,7672.00
2023-01-17T09:51:43.630Z,10188.00
2023-01-17T09:52:45.689Z,10452.00
2023-01-17T09:53:47.709Z,10148.00
2023-01-17T09:54:49.745Z,7600.00
2023-01-17T09:55:51.746Z,5380.00
2023-01-17T09:56:53.755Z,4648.00
2023-01-17T09:57:55.767Z,4908.00
2023-01-17T09:58:57.784Z,6264.00
2023-01-17T10:00:03.603Z,6388.00
2023-01-17T10:01:01.663Z,7560.00
2023-01-17T10:02:03.813Z,6736.00
2023-01-17T10:03:04.874Z,5228.00
2023-01-17T10:04:06.984Z,4364.00
2023-01-17T10:05:09.030Z,4652.00
2023-01-17T10:06:11.014Z,4488.00
2023-01-17T10:07:13.006Z,4332.00
2023-01-17T10:08:15.066Z,3924.00
2023-01-17T10:09:17.077Z,4432.00
2023-01-17T10:10:19.113Z,4760.00
2023-01-17T10:11:21.103Z,4204.00
2023-01-17T10:12:23.108Z,4224.00
2023-01-17T10:13:25.129Z,4316.00
2023-01-17T10:14:27.145Z,5388.00
2023-01-17T10:15:29.168Z,8080.00
2023-01-17T10:16:31.239Z,9312.00
2023-01-17T10:17:33.225Z,9512.00
2023-01-17T10:18:35.263Z,7924.00
2023-01-17T10:19:37.277Z,6708.00
2023-01-17T10:20:39.283Z,6308.00
2023-01-17T10:21:41.307Z,5952.00
2023-01-17T10:22:43.336Z,5912.00
2023-01-17T10:23:45.324Z,5060.00
2023-01-17T10:24:47.343Z,5664.00
2023-01-17T10:25:49.341Z,7712.00
2023-01-17T10:26:51.384Z,7772.00
2023-01-17T10:27:53.391Z,6144.00
2023-01-17T10:28:55.418Z,6220.00
2023-01-17T10:29:57.421Z,5712.00
2023-01-17T10:30:59.521Z,6064.00
2023-01-17T10:32:01.525Z,5700.00
2023-01-17T10:33:03.548Z,5216.00
2023-01-17T10:34:05.575Z,5404.00
2023-01-17T10:35:07.589Z,6236.00
2023-01-17T10:36:09.611Z,6224.00
2023-01-17T10:37:11.635Z,5240.00
2023-01-17T10:38:13.642Z,5232.00
2023-01-17T10:39:15.686Z,5100.00
2023-01-17T10:40:17.710Z,4336.00
2023-01-17T10:41:19.731Z,3740.00
2023-01-17T10:42:21.746Z,4192.00
2023-01-17T10:43:23.742Z,3152.00
2023-01-17T10:44:25.798Z,7212.00
2023-01-17T10:45:27.831Z,15648.00
2023-01-17T10:46:29.908Z,15680.00
2023-01-17T10:47:31.892Z,15520.00
2023-01-17T10:48:33.897Z,16256.00
2023-01-17T10:49:35.968Z,16384.00
2023-01-17T10:50:38.000Z,16224.00
2023-01-17T10:51:40.025Z,16096.00
2023-01-17T10:52:42.086Z,16096.00
2023-01-17T10:53:44.136Z,16416.00
2023-01-17T10:54:46.209Z,16352.00
2023-01-17T10:55:48.214Z,16096.00
2023-01-17T10:56:50.213Z,15904.00
2023-01-17T10:57:52.251Z,15968.00
2023-01-17T10:58:54.259Z,12816.00
2023-01-17T10:59:56.281Z,7444.00
2023-01-17T11:00:58.302Z,6816.00
2023-01-17T11:02:00.410Z,5972.00
2023-01-17T11:03:02.563Z,6004.00
2023-01-17T11:04:04.573Z,6208.00
2023-01-17T11:05:06.638Z,7112.00
2023-01-17T11:06:08.713Z,7572.00
2023-01-17T11:07:10.739Z,7528.00
2023-01-17T11:08:12.820Z,6232.00
2023-01-17T11:09:14.891Z,5388.00
2023-01-17T11:10:16.963Z,5844.00
2023-01-17T11:11:19.013Z,6736.00
2023-01-17T11:12:21.060Z,7648.00
2023-01-17T11:13:23.101Z,20384.00
2023-01-17T11:14:25.110Z,9056.00
2023-01-17T11:15:27.234Z,21632.00
2023-01-17T11:16:29.247Z,17632.00
2023-01-17T11:17:31.344Z,17888.00
2023-01-17T11:18:33.405Z,10644.00
2023-01-17T11:19:35.448Z,13656.00
2023-01-17T11:20:37.482Z,18016.00
2023-01-17T11:21:39.544Z,9108.00
2023-01-17T11:22:41.549Z,13184.00
2023-01-17T11:23:43.568Z,10464.00
2023-01-17T11:24:45.612Z,10196.00
2023-01-17T11:25:47.703Z,11116.00
2023-01-17T11:26:49.784Z,18304.00
2023-01-17T11:27:51.763Z,15232.00
2023-01-17T11:28:53.788Z,11032.00
2023-01-17T11:29:55.825Z,16672.00
2023-01-17T11:30:57.885Z,17952.00
2023-01-17T11:31:59.889Z,18272.00
2023-01-17T11:33:01.901Z,18624.00
2023-01-17T11:34:03.908Z,19328.00
2023-01-17T11:35:05.941Z,20096.00
2023-01-17T11:36:07.981Z,20128.00
2023-01-17T11:37:09.993Z,19712.00
2023-01-17T11:38:12.040Z,18176.00
2023-01-17T11:39:14.047Z,13532.00
2023-01-17T11:40:16.108Z,8012.00
2023-01-17T11:41:18.143Z,3752.00
2023-01-17T11:42:20.159Z,3136.00
2023-01-17T11:43:22.196Z,2968.00
2023-01-17T11:44:24.281Z,2924.00
2023-01-17T11:45:26.284Z,2912.00
2023-01-17T11:46:28.453Z,2836.00
2023-01-17T11:47:30.480Z,2740.00
2023-01-17T11:48:32.482Z,2672.00
2023-01-17T11:49:34.511Z,2648.00
2023-01-17T11:50:36.533Z,2628.00
2023-01-17T11:51:38.575Z,2608.00
2023-01-17T11:52:40.601Z,2596.00
2023-01-17T11:53:42.628Z,2596.00
2023-01-17T11:54:44.629Z,2604.00
2023-01-17T11:55:46.640Z,2600.00
2023-01-17T11:56:48.647Z,2576.00
2023-01-17T11:57:50.767Z,2816.00
2023-01-17T11:58:52.752Z,2916.00
2023-01-17T11:59:54.773Z,2788.00
2023-01-17T12:00:56.794Z,2792.00
2023-01-17T12:01:58.786Z,3184.00
2023-01-17T12:03:00.793Z,3076.00
2023-01-17T12:04:02.886Z,3272.00
2023-01-17T12:05:04.923Z,3364.00
2023-01-17T12:06:06.923Z,3168.00
2023-01-17T12:07:09.013Z,3300.00
2023-01-17T12:08:11.013Z,3632.00
2023-01-17T12:09:13.004Z,3904.00
2023-01-17T12:10:15.068Z,4496.00
2023-01-17T12:11:17.112Z,5508.00
2023-01-17T12:12:19.093Z,6328.00
2023-01-17T12:13:21.095Z,6064.00
2023-01-17T12:14:23.107Z,5676.00
2023-01-17T12:15:25.140Z,6396.00
2023-01-17T12:16:27.152Z,6776.00
2023-01-17T12:17:29.165Z,7436.00
2023-01-17T12:18:31.175Z,7284.00
2023-01-17T12:19:33.188Z,6100.00
2023-01-17T12:20:35.214Z,6708.00
2023-01-17T12:21:37.227Z,7420.00
2023-01-17T12:22:39.233Z,7144.00
2023-01-17T12:23:41.255Z,5232.00
2023-01-17T12:24:43.259Z,3676.00
2023-01-17T12:25:45.272Z,3084.00
2023-01-17T12:26:47.295Z,3112.00
2023-01-17T12:27:49.299Z,2944.00
2023-01-17T12:28:51.369Z,2756.00
2023-01-17T12:29:53.395Z,2552.00
2023-01-17T12:30:55.430Z,2416.00
2023-01-17T12:31:57.420Z,2308.00
2023-01-17T12:32:59.449Z,2264.00
2023-01-17T12:34:01.489Z,2216.00
2023-01-17T12:35:03.556Z,2184.00
2023-01-17T12:36:05.565Z,2132.00
2023-01-17T12:37:07.570Z,2108.00
2023-01-17T12:38:11.414Z,2148.00
2023-01-17T12:39:11.856Z,2116.00
2023-01-17T12:40:13.982Z,2288.00
2023-01-17T12:41:15.995Z,2340.00
2023-01-17T12:42:17.988Z,2440.00
2023-01-17T12:43:20.019Z,2444.00
2023-01-17T12:44:22.076Z,2404.00
2023-01-17T12:45:24.067Z,2628.00
2023-01-17T12:46:26.090Z,2528.00
2023-01-17T12:47:28.099Z,2328.00
2023-01-17T12:48:30.152Z,2404.00
2023-01-17T12:49:32.181Z,2480.00
2023-01-17T12:50:34.191Z,2956.00
2023-01-17T12:51:36.213Z,3864.00
2023-01-17T12:52:38.213Z,4328.00
2023-01-17T12:53:40.253Z,4748.00
2023-01-17T12:54:42.274Z,4800.00
2023-01-17T12:55:44.285Z,4704.00
2023-01-17T12:56:46.297Z,4656.00
2023-01-17T12:57:48.315Z,4740.00
2023-01-17T12:58:50.347Z,4936.00
2023-01-17T12:59:52.367Z,5404.00
2023-01-17T13:00:54.511Z,5752.00
2023-01-17T13:01:56.728Z,5960.00
2023-01-17T13:02:57.696Z,6204.00
2023-01-17T13:03:59.730Z,6476.00
2023-01-17T13:05:01.731Z,6496.00
2023-01-17T13:06:03.731Z,6140.00
2023-01-17T13:07:05.752Z,5752.00
2023-01-17T13:08:07.764Z,5360.00
2023-01-17T13:09:09.766Z,4956.00
2023-01-17T13:10:11.936Z,4696.00
2023-01-17T13:11:13.956Z,4688.00
2023-01-17T13:12:16.008Z,4636.00
2023-01-17T13:13:18.032Z,4552.00
2023-01-17T13:14:20.157Z,4428.00
2023-01-17T13:15:22.175Z,4204.00
2023-01-17T13:16:24.265Z,3848.00
2023-01-17T13:17:26.247Z,3480.00
2023-01-17T13:18:28.270Z,3196.00
2023-01-17T13:19:30.283Z,2952.00
2023-01-17T13:20:32.291Z,2804.00
2023-01-17T13:21:34.312Z,2760.00
2023-01-17T13:22:36.338Z,2828.00
2023-01-17T13:23:38.352Z,2960.00
2023-01-17T13:24:40.368Z,3144.00
2023-01-17T13:25:42.394Z,3352.00
2023-01-17T13:26:44.409Z,3460.00
2023-01-17T13:27:46.414Z,3360.00
2023-01-17T13:28:48.458Z,3112.00
2023-01-17T13:29:50.468Z,2844.00
2023-01-17T13:30:52.489Z,2632.00
2023-01-17T13:31:54.516Z,2476.00
2023-01-17T13:32:56.523Z,2364.00
2023-01-17T13:33:58.556Z,2300.00
2023-01-17T13:35:01.747Z,2320.00
2023-01-17T13:36:02.709Z,2436.00
2023-01-17T13:37:04.742Z,2648.00
2023-01-17T13:38:06.783Z,2788.00
2023-01-17T13:39:08.787Z,2708.00
2023-01-17T13:40:10.799Z,2588.00
2023-01-17T13:41:12.805Z,2584.00
2023-01-17T13:42:14.865Z,2712.00
2023-01-17T13:43:16.885Z,2860.00
2023-01-17T13:44:18.884Z,2964.00
2023-01-17T13:45:21.005Z,2980.00
2023-01-17T13:46:22.993Z,3012.00
2023-01-17T13:47:24.987Z,3060.00
2023-01-17T13:48:27.008Z,3024.00
2023-01-17T13:49:29.066Z,2900.00
2023-01-17T13:50:31.066Z,2748.00
2023-01-17T13:51:33.091Z,2612.00
2023-01-17T13:52:35.097Z,2512.00
2023-01-17T13:53:37.174Z,2416.00
2023-01-17T13:54:39.138Z,2340.00
2023-01-17T13:55:41.202Z,2296.00
2023-01-17T13:56:43.212Z,2272.00
2023-01-17T13:57:45.199Z,2276.00
2023-01-17T13:58:47.255Z,2320.00
2023-01-17T13:59:49.237Z,2400.00
2023-01-17T14:00:51.400Z,2540.00
2023-01-17T14:01:53.565Z,2668.00
2023-01-17T14:02:55.773Z,2732.00
2023-01-17T14:03:56.677Z,2780.00
2023-01-17T14:04:59.618Z,2896.00
2023-01-17T14:06:00.581Z,3008.00
2023-01-17T14:07:02.596Z,2904.00
2023-01-17T14:08:04.618Z,2700.00
2023-01-17T14:09:06.618Z,2488.00
2023-01-17T14:10:08.620Z,2240.00
2023-01-17T14:11:10.633Z,1992.00
2023-01-17T14:12:12.652Z,1808.00
2023-01-17T14:13:14.676Z,1700.00
2023-01-17T14:14:16.698Z,1688.00
2023-01-17T14:15:18.736Z,1724.00
2023-01-17T14:16:20.800Z,1828.00
2023-01-17T14:17:22.762Z,1912.00
2023-01-17T14:18:24.780Z,1964.00
2023-01-17T14:19:26.791Z,1956.00
2023-01-17T14:20:28.827Z,1952.00
2023-01-17T14:21:30.872Z,1984.00
2023-01-17T14:22:42.835Z,2044.00
2023-01-17T14:23:34.933Z,2100.00
2023-01-17T14:24:36.956Z,2108.00
2023-01-17T14:25:38.986Z,2056.00
2023-01-17T14:26:41.008Z,2008.00
2023-01-17T14:27:43.015Z,1948.00
2023-01-17T14:28:45.048Z,1872.00
2023-01-17T14:29:47.058Z,1808.00
2023-01-17T14:30:49.074Z,1752.00
2023-01-17T14:31:51.142Z,1676.00
2023-01-17T14:32:53.107Z,1592.00
2023-01-17T14:33:55.155Z,1508.00
2023-01-17T14:34:57.184Z,1420.00
2023-01-17T14:35:59.202Z,1356.00
2023-01-17T14:37:01.207Z,1288.00
2023-01-17T14:38:03.243Z,1224.00
2023-01-17T14:39:05.241Z,1184.00
2023-01-17T14:40:07.260Z,1148.00
2023-01-17T14:41:09.274Z,1124.00
2023-01-17T14:42:11.341Z,1096.00
2023-01-17T14:43:13.312Z,1060.00
2023-01-17T14:44:15.312Z,1036.00
2023-01-17T14:45:17.327Z,1044.00
2023-01-17T14:46:19.333Z,1052.00
2023-01-17T14:47:21.364Z,1028.00
2023-01-17T14:48:23.395Z,968.00
2023-01-17T14:49:25.401Z,900.00
2023-01-17T14:50:27.423Z,824.00
2023-01-17T14:51:29.433Z,760.00
2023-01-17T14:52:31.469Z,716.00
2023-01-17T14:53:33.485Z,680.00
2023-01-17T14:54:35.507Z,640.00
2023-01-17T14:55:37.535Z,612.00
2023-01-17T14:56:39.554Z,596.00
2023-01-17T14:57:41.614Z,596.00
2023-01-17T14:58:43.618Z,596.00
2023-01-17T14:59:45.619Z,600.00
2023-01-17T15:00:47.737Z,588.00
2023-01-17T15:02:05.740Z,584.00
2023-01-17T15:02:51.311Z,564.00
2023-01-17T15:03:53.437Z,544.00
2023-01-17T15:04:55.468Z,532.00
2023-01-17T15:05:57.496Z,524.00
2023-01-17T15:06:59.521Z,508.00
2023-01-17T15:08:01.566Z,496.00
2023-01-17T15:09:03.612Z,480.00
2023-01-17T15:10:05.621Z,460.00
2023-01-17T15:11:07.639Z,444.00
2023-01-17T15:12:09.664Z,436.00
2023-01-17T15:13:11.696Z,432.00
2023-01-17T15:14:13.701Z,416.00
2023-01-17T15:15:15.708Z,392.00
2023-01-17T15:16:17.755Z,372.00
2023-01-17T15:17:19.730Z,356.00
2023-01-17T15:18:21.772Z,344.00
2023-01-17T15:19:23.792Z,340.00
2023-01-17T15:20:25.791Z,336.00
2023-01-17T15:21:27.825Z,336.00
2023-01-17T15:22:29.904Z,328.00
2023-01-17T15:23:31.910Z,308.00
2023-01-17T15:24:33.923Z,272.00
2023-01-17T15:25:35.949Z,248.00
2023-01-17T15:26:37.966Z,232.00
2023-01-17T15:27:40.004Z,220.00
2023-01-17T15:28:42.048Z,204.00
2023-01-17T15:29:44.043Z,192.00
2023-01-17T15:30:46.152Z,176.00
2023-01-17T15:31:48.132Z,164.00
2023-01-17T15:32:50.159Z,152.00
2023-01-17T15:33:52.164Z,140.00
2023-01-17T15:34:54.191Z,132.00
2023-01-17T15:35:56.218Z,124.00
2023-01-17T15:36:58.221Z,112.00
